Time;durP1;ratioP1;P1;durP2;ratioP2;P2;SDS_P1;SDS_P2;PMS_P1;PMS_P2;Temp;Humidity;BMP_temperature;BMP_pressure;BME280_temperature;BME280_humidity;BME280_pressure;Samples;Min_cycle;Max_cycle;Signal;HPM_P1;HPM_P2
2021/11/17 02:27:16;;;;;;;;;49.25;36.50;;;;;11.39;100.00;101829.25;5017115;28;45813;-75
2021/11/17 02:30:01;;;;;;;;;52.25;38.75;;;;;11.41;100.00;101821.56;5017350;28;45313;-75
2021/11/17 02:32:48;;;;;;;;;54.00;40.00;;;;;11.42;100.00;101807.81;5008036;28;45458;-74
2021/11/17 02:35:43;;;;;;;;;53.25;41.25;;;;;11.43;100.00;101781.94;5017071;28;45485;-73
2021/11/17 02:38:20;;;;;;;;;49.00;37.00;;;;;11.42;100.00;101787.06;5016697;28;45614;-72
2021/11/17 02:40:55;;;;;;;;;53.25;39.50;;;;;11.42;100.00;101795.72;5016596;28;45514;-79
2021/11/17 02:43:46;;;;;;;;;53.00;41.00;;;;;11.40;100.00;101801.63;5017599;28;45414;-76
2021/11/17 02:46:17;;;;;;;;;48.50;38.75;;;;;11.39;100.00;101812.81;5016011;28;46137;-73
2021/11/17 02:48:55;;;;;;;;;50.75;41.50;;;;;11.38;100.00;101811.91;5016327;28;45381;-73
2021/11/17 02:51:28;;;;;;;;;52.25;38.75;;;;;11.39;100.00;101826.66;5017225;28;45544;-73
2021/11/17 02:54:06;;;;;;;;;51.50;40.75;;;;;11.40;100.00;101831.03;4999214;28;45536;-73
2021/11/17 02:57:10;;;;;;;;;51.75;38.50;;;;;11.30;100.00;101815.75;5016225;28;46080;-81
2021/11/17 02:59:51;;;;;;;;;50.25;38.75;;;;;11.41;100.00;101835.41;5004157;28;45414;-81
2021/11/17 03:02:29;;;;;;;;;51.50;41.00;;;;;11.44;100.00;101827.81;5016660;28;45340;-79
2021/11/17 03:05:06;;;;;;;;;46.50;37.75;;;;;11.48;100.00;101828.00;5016453;28;45489;-76
2021/11/17 03:08:08;;;;;;;;;50.75;40.50;;;;;11.39;100.00;101816.28;5016528;28;45437;-78
2021/11/17 03:11:04;;;;;;;;;48.25;38.75;;;;;11.49;100.00;101843.66;5016214;28;45455;-80
2021/11/17 03:13:46;;;;;;;;;50.50;37.25;;;;;11.38;100.00;101830.06;5016501;28;46677;-74
2021/11/17 03:16:29;;;;;;;;;52.25;40.75;;;;;11.43;100.00;101849.38;5016781;28;45526;-78
2021/11/17 03:19:14;;;;;;;;;52.25;41.75;;;;;11.42;100.00;101844.97;5018961;28;46063;-76
2021/11/17 03:21:51;;;;;;;;;46.50;38.00;;;;;11.36;100.00;101849.81;5019186;28;45280;-73
2021/11/17 03:24:54;;;;;;;;;49.00;38.50;;;;;11.33;100.00;101859.13;5017023;28;45344;-75
2021/11/17 03:27:43;;;;;;;;;52.50;41.00;;;;;11.33;100.00;101879.88;4979806;28;45266;-74
2021/11/17 03:30:08;;;;;;;;;45.25;36.00;;;;;11.32;100.00;101883.25;5014362;28;46105;-74
2021/11/17 03:32:49;;;;;;;;;48.00;39.75;;;;;11.30;100.00;101877.97;4997966;28;45534;-79
2021/11/17 03:35:46;;;;;;;;;51.75;41.75;;;;;11.28;100.00;101867.53;5016473;28;45371;-75
2021/11/17 03:38:29;;;;;;;;;56.25;44.00;;;;;11.25;100.00;101871.63;4996900;28;45406;-79
2021/11/17 03:41:08;;;;;;;;;56.25;41.50;;;;;11.20;100.00;101865.28;5021365;28;45480;-73
2021/11/17 03:43:53;;;;;;;;;52.25;41.75;;;;;11.14;100.00;101877.06;5023508;28;45992;-79
2021/11/17 03:46:24;;;;;;;;;49.75;36.50;;;;;11.13;100.00;101880.47;5017525;28;45928;-74
2021/11/17 03:49:12;;;;;;;;;50.00;40.00;;;;;11.08;100.00;101881.88;5016123;28;45606;-77
2021/11/17 03:52:10;;;;;;;;;54.75;44.25;;;;;11.15;100.00;101886.66;5014317;28;45967;-78
2021/11/17 03:55:05;;;;;;;;;50.00;39.00;;;;;11.14;100.00;101894.31;5015934;28;46067;-78
2021/11/17 03:58:26;;;;;;;;;52.50;40.50;;;;;11.15;100.00;101889.25;4999489;28;45438;-77
2021/11/17 04:00:51;;;;;;;;;51.00;40.25;;;;;11.18;100.00;101893.69;4966921;28;45467;-77
2021/11/17 04:03:32;;;;;;;;;50.75;40.75;;;;;11.17;100.00;101889.31;5017220;28;46128;-76
2021/11/17 04:06:24;;;;;;;;;45.75;37.75;;;;;11.13;100.00;101896.03;5015721;28;45901;-74
2021/11/17 04:09:29;;;;;;;;;53.75;40.50;;;;;11.13;100.00;101903.78;5015636;28;45530;-78
2021/11/17 04:12:12;;;;;;;;;52.50;41.00;;;;;11.14;100.00;101910.78;4965195;28;45499;-75
2021/11/17 04:15:05;;;;;;;;;49.00;40.00;;;;;11.11;100.00;101913.16;5015628;28;45397;-75
2021/11/17 04:18:09;;;;;;;;;49.25;39.00;;;;;11.13;100.00;101915.84;4999986;28;45281;-77
2021/11/17 04:20:55;;;;;;;;;52.25;39.50;;;;;11.11;100.00;101910.56;4961607;28;45522;-80
2021/11/17 04:23:45;;;;;;;;;47.50;37.25;;;;;11.13;100.00;101913.25;5016336;28;45336;-77
2021/11/17 04:26:18;;;;;;;;;47.50;38.75;;;;;11.20;100.00;101915.44;5000601;28;45572;-75
2021/11/17 04:28:56;;;;;;;;;51.75;39.50;;;;;11.21;100.00;101918.91;5015499;28;46111;-73
2021/11/17 04:31:47;;;;;;;;;50.50;39.25;;;;;11.22;100.00;101918.09;5011057;28;45198;-74
2021/11/17 04:34:24;;;;;;;;;53.00;36.00;;;;;11.25;100.00;101921.78;5018719;28;45517;-76
2021/11/17 04:37:12;;;;;;;;;50.25;38.75;;;;;11.27;100.00;101932.25;5018803;28;46038;-72
2021/11/17 04:40:15;;;;;;;;;49.25;37.75;;;;;11.27;100.00;101932.25;5018783;28;45347;-72
2021/11/17 04:42:56;;;;;;;;;47.50;36.00;;;;;11.27;100.00;101921.88;5019615;28;45564;-76
2021/11/17 04:45:49;;;;;;;;;46.50;38.00;;;;;11.20;100.00;101907.66;5001760;28;45360;-74
2021/11/17 04:48:28;;;;;;;;;51.75;41.75;;;;;11.32;100.00;101925.63;5014707;28;47350;-75
2021/11/17 04:50:54;;;;;;;;;44.75;35.25;;;;;11.33;100.00;101922.22;5018628;28;45427;-74
2021/11/17 04:53:38;;;;;;;;;41.50;35.50;;;;;11.33;100.00;101924.81;5018228;28;45569;-75
2021/11/17 04:56:25;;;;;;;;;50.75;37.50;;;;;11.39;100.00;101924.28;4989325;28;45475;-75
2021/11/17 04:59:12;;;;;;;;;45.25;36.25;;;;;11.41;100.00;101917.50;5019233;28;45444;-79
2021/11/17 05:01:40;;;;;;;;;41.00;35.00;;;;;11.43;100.00;101916.78;5018522;28;45858;-77
2021/11/17 05:04:46;;;;;;;;;44.75;35.75;;;;;11.47;100.00;101915.25;5018762;28;45442;-74
2021/11/17 05:07:39;;;;;;;;;45.25;36.00;;;;;11.49;100.00;101910.19;5013153;28;45538;-74
2021/11/17 05:10:18;;;;;;;;;40.75;35.75;;;;;11.46;100.00;101926.44;5017563;28;46665;-73
2021/11/17 05:13:14;;;;;;;;;38.75;34.25;;;;;11.53;100.00;101922.50;5001646;28;45483;-74
2021/11/17 05:16:16;;;;;;;;;45.50;36.50;;;;;11.54;100.00;101920.03;5018244;28;45329;-74
2021/11/17 05:19:06;;;;;;;;;44.75;34.00;;;;;11.53;100.00;101925.09;5019149;28;45391;-78
2021/11/17 05:22:06;;;;;;;;;42.50;35.75;;;;;11.56;100.00;101922.69;4990571;28;46212;-79
2021/11/17 05:24:55;;;;;;;;;41.25;35.00;;;;;11.57;100.00;101916.72;5021098;28;45304;-73
2021/11/17 05:27:51;;;;;;;;;41.25;34.25;;;;;11.60;100.00;101919.50;5004862;28;45454;-74
2021/11/17 05:30:43;;;;;;;;;40.75;35.25;;;;;11.62;100.00;101910.06;5018270;28;45644;-73
2021/11/17 05:33:30;;;;;;;;;46.25;36.75;;;;;11.66;100.00;101900.81;5017779;28;46258;-73
2021/11/17 05:36:01;;;;;;;;;43.75;34.75;;;;;11.67;100.00;101908.66;5017564;28;45922;-73
2021/11/17 05:39:10;;;;;;;;;42.75;34.25;;;;;11.70;100.00;101907.94;5018046;28;45401;-73
2021/11/17 05:42:06;;;;;;;;;37.75;33.75;;;;;11.70;100.00;101900.16;5007602;28;45799;-73
2021/11/17 05:44:34;;;;;;;;;39.75;33.50;;;;;11.74;100.00;101903.00;5017473;28;45457;-77
2021/11/17 05:47:19;;;;;;;;;39.25;34.00;;;;;11.76;100.00;101896.22;5017796;28;45253;-76
2021/11/17 05:50:04;;;;;;;;;36.75;31.75;;;;;11.76;100.00;101898.81;5017635;28;45383;-76
2021/11/17 05:53:03;;;;;;;;;38.25;32.25;;;;;11.79;100.00;101897.19;5017834;28;45407;-80
2021/11/17 05:55:43;;;;;;;;;42.50;33.75;;;;;11.82;100.00;101895.69;5016759;28;45498;-77
2021/11/17 05:58:18;;;;;;;;;44.50;35.00;;;;;11.81;100.00;101893.88;5029670;28;45217;-73
2021/11/17 06:01:14;;;;;;;;;39.00;34.25;;;;;11.69;100.00;101875.94;5021436;28;45355;-77
2021/11/17 06:04:05;;;;;;;;;33.75;32.25;;;;;11.74;100.00;101896.94;5017910;28;45497;-75
2021/11/17 06:06:36;;;;;;;;;43.25;34.50;;;;;11.73;100.00;101892.56;5018866;28;45930;-74
2021/11/17 06:09:01;;;;;;;;;29.50;27.25;;;;;11.71;100.00;101882.09;5017790;28;45969;-76
2021/11/17 06:11:40;;;;;;;;;33.50;31.50;;;;;11.69;100.00;101893.19;5017089;28;46808;-76
2021/11/17 06:14:09;;;;;;;;;42.00;34.00;;;;;11.68;100.00;101893.97;5018119;28;45371;-76
2021/11/17 06:16:43;;;;;;;;;35.25;30.75;;;;;11.66;100.00;101882.66;5017299;28;45986;-74
2021/11/17 06:19:10;;;;;;;;;33.00;30.25;;;;;11.70;100.00;101894.97;5017162;28;45321;-76
2021/11/17 06:21:39;;;;;;;;;31.75;27.50;;;;;11.61;100.00;101883.25;5016405;28;45357;-74
2021/11/17 06:24:08;;;;;;;;;39.75;35.00;;;;;11.66;100.00;101896.50;5019177;28;45535;-76
2021/11/17 06:26:40;;;;;;;;;33.00;32.00;;;;;11.62;100.00;101891.91;5016288;28;45362;-74
2021/11/17 06:29:11;;;;;;;;;36.00;29.50;;;;;11.65;100.00;101894.69;5016567;28;45987;-78
2021/11/17 06:31:41;;;;;;;;;36.75;31.75;;;;;11.65;100.00;101894.69;5016495;28;45460;-74
2021/11/17 06:34:31;;;;;;;;;29.50;26.50;;;;;11.67;100.00;101899.97;5017744;28;45239;-74
2021/11/17 06:36:58;;;;;;;;;35.25;31.25;;;;;11.69;100.00;101888.91;5014618;28;45655;-74
2021/11/17 06:39:25;;;;;;;;;34.75;31.00;;;;;11.70;100.00;101894.97;5016364;28;45535;-76
2021/11/17 06:41:52;;;;;;;;;43.75;34.25;;;;;11.69;100.00;101899.28;4997891;28;45500;-76
2021/11/17 06:44:18;;;;;;;;;31.75;27.75;;;;;11.69;100.00;101914.84;5021458;28;45239;-77
2021/11/17 06:46:44;;;;;;;;;35.25;31.50;;;;;11.68;100.00;101915.63;5015130;28;45507;-76
2021/11/17 06:49:10;;;;;;;;;35.25;30.00;;;;;11.64;100.00;101911.06;5014489;28;45603;-79
2021/11/17 06:51:36;;;;;;;;;39.75;32.00;;;;;11.61;100.00;101908.28;5012471;28;45434;-76
2021/11/17 06:54:02;;;;;;;;;38.00;32.00;;;;;11.65;100.00;101927.53;5012634;28;45675;-79
2021/11/17 06:56:28;;;;;;;;;42.00;31.75;;;;;11.64;100.00;101930.94;5016705;28;45497;-77
2021/11/17 06:58:54;;;;;;;;;37.50;31.50;;;;;11.58;100.00;101923.69;5017018;28;45955;-81
2021/11/17 07:01:20;;;;;;;;;33.00;27.75;;;;;11.59;100.00;101934.16;5017411;28;45264;-81
2021/11/17 07:03:46;;;;;;;;;31.25;27.25;;;;;11.61;100.00;101942.00;5017042;28;45455;-79
2021/11/17 07:06:11;;;;;;;;;39.50;32.00;;;;;11.59;100.00;101947.13;5015724;28;45558;-79
2021/11/17 07:08:37;;;;;;;;;34.75;31.00;;;;;11.58;100.00;101952.22;5030211;28;45262;-80
2021/11/17 07:11:03;;;;;;;;;38.00;31.25;;;;;11.60;100.00;101963.59;5021086;28;45325;-79
2021/11/17 07:13:30;;;;;;;;;32.50;28.25;;;;;11.60;100.00;101955.81;5010960;28;45700;-79
2021/11/17 07:15:56;;;;;;;;;32.00;28.25;;;;;11.61;100.00;101954.97;5016643;28;45703;-82
2021/11/17 07:18:22;;;;;;;;;36.00;30.00;;;;;11.70;100.00;101965.00;4998605;28;45494;-77
2021/11/17 07:20:48;;;;;;;;;32.75;29.25;;;;;11.74;100.00;101978.25;5016746;28;45411;-79
2021/11/17 07:23:16;;;;;;;;;35.75;32.00;;;;;11.76;100.00;101984.44;5015917;28;45347;-76
2021/11/17 07:25:42;;;;;;;;;40.50;31.25;;;;;11.80;100.00;101987.22;5016208;28;45288;-77
2021/11/17 07:28:07;;;;;;;;;36.75;30.75;;;;;11.77;100.00;102004.38;5015465;28;45431;-77
2021/11/17 07:30:37;;;;;;;;;44.50;33.00;;;;;11.77;100.00;101995.69;5016415;28;45404;-76
2021/11/17 07:33:04;;;;;;;;;37.00;32.50;;;;;11.81;100.00;102004.56;5000218;28;45337;-75
2021/11/17 07:35:32;;;;;;;;;33.25;31.00;;;;;11.77;100.00;101993.09;5010667;28;45713;-76
2021/11/17 07:38:01;;;;;;;;;38.50;32.00;;;;;11.71;100.00;101992.75;5032944;28;45784;-80
2021/11/17 07:40:36;;;;;;;;;35.75;31.00;;;;;11.75;100.00;102005.09;5014719;28;45513;-76
2021/11/17 07:43:09;;;;;;;;;43.00;35.25;;;;;11.79;100.00;102004.47;5015536;28;45537;-77
2021/11/17 07:45:34;;;;;;;;;42.00;34.00;;;;;11.82;100.00;102006.38;4997485;28;46488;-77
2021/11/17 07:48:01;;;;;;;;;37.75;33.75;;;;;11.82;100.00;102017.63;4997476;28;45360;-78
2021/11/17 07:50:27;;;;;;;;;39.50;32.50;;;;;11.81;100.00;102014.94;5016422;28;45399;-78
2021/11/17 07:52:52;;;;;;;;;37.75;32.00;;;;;11.77;100.00;102008.66;5019724;28;45350;-78
2021/11/17 07:55:19;;;;;;;;;41.00;33.50;;;;;11.82;100.00;102015.03;4998848;28;48722;-78
2021/11/17 07:57:47;;;;;;;;;41.75;33.00;;;;;11.74;100.00;102004.19;5013331;28;46002;-77
2021/11/17 08:00:20;;;;;;;;;45.50;34.50;;;;;11.82;100.00;102009.84;5023667;28;45353;-76
2021/11/17 08:02:47;;;;;;;;;36.00;30.25;;;;;11.85;100.00;102012.63;5015987;28;45507;-77
2021/11/17 08:05:13;;;;;;;;;38.75;29.25;;;;;11.85;100.00;102007.44;5018185;28;45859;-75
2021/11/17 08:07:40;;;;;;;;;34.75;31.25;;;;;11.88;100.00;101998.94;5014193;28;46333;-77
2021/11/17 08:10:16;;;;;;;;;40.75;32.00;;;;;11.88;100.00;102009.31;5024457;28;45472;-79
2021/11/17 08:12:43;;;;;;;;;39.75;32.75;;;;;11.86;100.00;102018.69;5009861;28;45381;-74
2021/11/17 08:15:09;;;;;;;;;31.25;28.50;;;;;11.69;100.00;101997.84;5021621;28;46579;-77
2021/11/17 08:17:35;;;;;;;;;39.75;33.50;;;;;11.80;100.00;102021.81;5019102;28;45370;-76
2021/11/17 08:20:00;;;;;;;;;38.00;31.75;;;;;11.74;100.00;102014.56;5017989;28;45541;-75
2021/11/17 08:22:26;;;;;;;;;34.25;29.75;;;;;11.81;100.00;102020.16;5019635;28;45320;-75
2021/11/17 08:24:52;;;;;;;;;35.50;32.00;;;;;11.76;100.00;102020.75;5018867;28;45353;-76
2021/11/17 08:27:20;;;;;;;;;41.75;32.00;;;;;11.74;100.00;102017.16;5018565;28;45475;-75
2021/11/17 08:29:51;;;;;;;;;37.75;27.25;;;;;11.84;100.00;102033.28;5018385;28;45501;-75
2021/11/17 08:32:19;;;;;;;;;41.50;33.25;;;;;11.83;100.00;102011.63;5018220;28;45411;-76
2021/11/17 08:34:45;;;;;;;;;35.00;30.75;;;;;11.95;100.00;102029.63;5018440;28;45508;-74
2021/11/17 08:37:11;;;;;;;;;41.00;32.00;;;;;11.96;100.00;102033.13;5018024;28;45379;-75
2021/11/17 08:39:40;;;;;;;;;42.00;35.75;;;;;11.85;100.00;102012.63;5018011;28;45807;-74
2021/11/17 08:42:08;;;;;;;;;36.50;32.00;;;;;11.92;100.00;102032.94;5025162;28;45544;-75
2021/11/17 08:44:35;;;;;;;;;40.75;34.25;;;;;11.93;100.00;102032.13;5018731;28;45661;-74
2021/11/17 08:47:02;;;;;;;;;38.00;30.25;;;;;11.95;100.00;102039.13;5018432;28;45362;-74
2021/11/17 08:49:28;;;;;;;;;40.75;32.25;;;;;11.95;100.00;102039.13;5018795;28;45429;-73
2021/11/17 08:51:55;;;;;;;;;37.75;28.50;;;;;11.97;100.00;102043.59;5018228;28;45324;-74
2021/11/17 08:54:21;;;;;;;;;40.00;30.50;;;;;11.93;100.00;102041.63;5018288;28;45366;-75
2021/11/17 08:56:47;;;;;;;;;38.00;29.75;;;;;11.99;100.00;102052.41;5016651;28;45399;-75
2021/11/17 08:59:12;;;;;;;;;38.00;32.50;;;;;11.99;100.00;102057.59;5018541;28;45237;-76
2021/11/17 09:01:38;;;;;;;;;42.00;32.25;;;;;11.95;100.00;102040.00;5018257;28;45459;-75
2021/11/17 09:04:09;;;;;;;;;39.50;30.75;;;;;12.01;100.00;102057.66;5017758;28;45438;-75
2021/11/17 09:06:38;;;;;;;;;39.75;31.50;;;;;11.96;100.00;102039.19;5017873;28;45402;-74
2021/11/17 09:09:06;;;;;;;;;36.00;30.75;;;;;12.02;100.00;102046.47;5000229;28;45305;-75
2021/11/17 09:11:37;;;;;;;;;34.25;29.00;;;;;12.04;100.00;102047.47;5017233;28;45563;-75
2021/11/17 09:14:04;;;;;;;;;29.50;28.50;;;;;12.03;100.00;102046.59;4997926;28;45648;-74
2021/11/17 09:16:31;;;;;;;;;37.00;32.50;;;;;12.11;100.00;102054.81;4997560;28;45831;-75
2021/11/17 09:18:58;;;;;;;;;39.50;30.75;;;;;12.15;100.00;102055.91;5010930;28;45367;-79
2021/11/17 09:21:24;;;;;;;;;33.00;29.50;;;;;12.10;100.00;102044.34;5016261;28;45479;-73
2021/11/17 09:23:50;;;;;;;;;43.00;33.00;;;;;12.17;100.00;102057.78;5020851;28;46299;-76
2021/11/17 09:26:20;;;;;;;;;41.75;31.50;;;;;12.18;100.00;102066.44;5024492;28;45893;-74
2021/11/17 09:28:47;;;;;;;;;37.25;30.50;;;;;12.20;100.00;102077.81;5037678;28;45442;-76
2021/11/17 09:31:14;;;;;;;;;47.50;36.50;;;;;12.14;100.00;102067.09;5017301;28;45626;-74
2021/11/17 09:33:39;;;;;;;;;38.75;31.75;;;;;12.20;100.00;102070.03;5017415;28;46234;-76
2021/11/17 09:36:06;;;;;;;;;36.75;29.75;;;;;12.28;100.00;102071.38;5017646;28;45329;-73
2021/11/17 09:38:32;;;;;;;;;39.75;32.75;;;;;12.29;100.00;102072.28;5018122;28;45295;-74
2021/11/17 09:41:02;;;;;;;;;39.25;32.50;;;;;12.36;100.00;102080.50;5019577;28;45218;-73
2021/11/17 09:43:34;;;;;;;;;33.50;29.75;;;;;12.37;100.00;102073.63;5017822;28;46253;-74
2021/11/17 09:46:01;;;;;;;;;35.00;28.25;;;;;12.42;100.00;102084.25;5017562;28;45779;-76
2021/11/17 09:48:37;;;;;;;;;33.00;29.50;;;;;12.39;100.00;102091.06;5017915;28;45430;-76
2021/11/17 09:51:09;;;;;;;;;36.50;32.00;;;;;12.36;100.00;102077.00;5017601;28;45317;-73
2021/11/17 09:53:45;;;;;;;;;36.50;31.50;;;;;12.33;100.00;102082.94;5016932;28;46099;-73
2021/11/17 09:56:39;;;;;;;;;43.25;34.00;;;;;12.41;100.00;102079.88;5017340;28;45855;-75
2021/11/17 09:59:19;;;;;;;;;31.75;28.50;;;;;12.43;100.00;102091.25;5006568;28;45475;-75
2021/11/17 10:01:50;;;;;;;;;33.75;29.50;;;;;12.44;100.00;102096.53;5017427;28;45403;-75
2021/11/17 10:04:32;;;;;;;;;37.25;30.25;;;;;12.46;100.00;102096.63;5016873;28;45375;-74
2021/11/17 10:13:23;;;;;;;;;37.75;32.00;;;;;12.49;100.00;102107.19;4956172;28;45619;-76
2021/11/17 10:15:51;;;;;;;;;39.25;32.75;;;;;12.52;100.00;102108.28;5013826;28;45403;-75
2021/11/17 10:18:18;;;;;;;;;36.00;31.75;;;;;12.56;100.00;102111.03;5016878;28;45891;-74
2021/11/17 10:20:51;;;;;;;;;31.75;27.50;;;;;12.59;100.00;102106.03;5017048;28;45265;-75
2021/11/17 10:23:37;;;;;;;;;33.50;31.50;;;;;12.60;100.00;102105.22;5017458;28;45241;-75
2021/11/17 10:26:02;;;;;;;;;27.25;27.25;;;;;12.67;100.00;102110.84;5016934;28;46059;-75
2021/11/17 10:28:51;;;;;;;;;34.00;28.00;;;;;12.70;100.00;102107.53;5015855;28;45384;-75
2021/11/17 10:31:27;;;;;;;;;35.00;32.50;;;;;12.74;100.00;102103.41;5016674;28;45249;-75
2021/11/17 10:34:13;;;;;;;;;32.25;28.75;;;;;12.77;100.00;102103.59;5017246;28;45304;-76
2021/11/17 10:36:44;;;;;;;;;33.25;29.00;;;;;12.77;100.00;102096.66;5017440;28;46366;-75
2021/11/17 10:39:17;;;;;;;;;38.75;32.75;;;;;12.80;100.00;102102.03;5016826;28;45345;-75
2021/11/17 10:42:01;;;;;;;;;36.25;32.00;;;;;12.90;100.00;102102.56;5017006;28;45296;-76
2021/11/17 10:44:58;;;;;;;;;40.25;34.50;;;;;12.99;100.00;102105.66;5016892;28;45509;-75
2021/11/17 10:47:29;;;;;;;;;39.00;31.75;;;;;13.02;100.00;102105.84;5016300;28;45246;-75
2021/11/17 10:50:04;;;;;;;;;36.25;29.00;;;;;13.06;100.00;102100.03;5016436;28;45871;-75
2021/11/17 10:52:29;;;;;;;;;38.75;31.75;;;;;13.11;100.00;102108.97;5016775;28;45447;-76
2021/11/17 10:54:58;;;;;;;;;33.75;28.25;;;;;13.13;100.00;102102.13;5016677;28;45622;-75
2021/11/17 10:57:27;;;;;;;;;33.00;28.25;;;;;13.14;100.00;102098.72;5016303;28;45423;-75
2021/11/17 10:59:55;;;;;;;;;32.75;28.50;;;;;13.13;100.00;102096.94;5016390;28;45502;-76
2021/11/17 11:02:22;;;;;;;;;30.50;29.25;;;;;13.09;100.00;102087.16;5016662;28;45508;-75
2021/11/17 11:05:17;;;;;;;;;31.25;26.75;;;;;13.20;100.00;102103.38;5016845;28;45313;-74
2021/11/17 11:08:05;;;;;;;;;40.75;32.50;;;;;13.20;100.00;102099.84;5013591;28;46352;-75
2021/11/17 11:10:46;;;;;;;;;33.75;31.00;;;;;13.20;100.00;102103.38;5016810;28;45484;-75
2021/11/17 11:13:27;;;;;;;;;33.25;30.25;;;;;13.20;100.00;102100.78;5016369;28;45435;-74
2021/11/17 11:15:57;;;;;;;;;35.75;32.00;;;;;13.28;100.00;102099.47;5016849;28;45439;-75
2021/11/17 11:18:35;;;;;;;;;35.75;30.50;;;;;13.35;100.00;102092.91;5016011;28;45978;-74
2021/11/17 11:21:03;;;;;;;;;39.00;29.50;;;;;13.43;100.00;102088.16;5016477;28;45306;-75
2021/11/17 11:24:16;;;;;;;;;33.25;29.00;;;;;13.41;100.00;102072.44;5016540;28;45352;-75
2021/11/17 11:27:30;;;;;;;;;31.50;29.25;;;;;13.46;100.00;102070.09;5019404;28;45281;-75
2021/11/17 11:30:02;;;;;;;;;27.50;24.75;;;;;13.57;100.00;102081.97;5008139;28;46508;-76
2021/11/17 11:32:28;;;;;;;;;30.25;26.50;;;;;13.61;100.00;102085.63;5016102;28;45840;-75
2021/11/17 11:34:59;;;;;;;;;33.00;27.00;;;;;13.63;100.00;102084.00;5016173;28;45221;-74
2021/11/17 11:37:25;;;;;;;;;33.00;26.00;;;;;13.62;100.00;102083.13;5016267;28;45335;-75
2021/11/17 11:39:53;;;;;;;;;29.75;26.25;;;;;13.62;100.00;102080.50;5018146;28;45812;-75
2021/11/17 11:42:28;;;;;;;;;25.75;24.25;;;;;13.64;100.00;102077.97;5019475;28;45203;-75
2021/11/17 11:45:08;;;;;;;;;29.25;26.50;;;;;13.68;100.00;102076.44;5019642;28;45311;-74
2021/11/17 11:47:51;;;;;;;;;27.75;26.50;;;;;13.74;100.00;102082.84;5001682;28;45335;-75
2021/11/17 11:50:32;;;;;;;;;36.25;27.50;;;;;13.83;100.00;102081.53;5019366;28;45249;-75
2021/11/17 11:53:06;;;;;;;;;30.50;24.25;;;;;13.89;100.00;102080.16;5019308;28;45416;-76
2021/11/17 11:55:51;;;;;;;;;26.75;24.75;;;;;13.97;100.00;102077.06;5001772;28;45361;-75
2021/11/17 11:58:25;;;;;;;;;27.00;24.75;;;;;14.03;100.00;102075.66;5019551;28;45457;-75
2021/11/17 12:01:02;;;;;;;;;31.00;26.50;;;;;14.04;100.00;102068.75;5019147;28;45483;-75
2021/11/17 12:03:30;;;;;;;;;26.25;24.75;;;;;14.05;100.00;102076.63;5019172;28;45860;-75
2021/11/17 12:06:03;;;;;;;;;26.00;21.00;;;;;14.11;100.00;102068.22;5019190;28;45273;-75
2021/11/17 12:08:39;;;;;;;;;18.50;17.75;;;;;14.15;100.00;102071.88;5019314;28;45263;-75
2021/11/17 12:11:04;;;;;;;;;19.75;17.50;;;;;14.16;100.00;102073.66;5019023;28;45257;-75
2021/11/17 12:13:43;;;;;;;;;16.50;15.75;;;;;14.15;100.00;102062.38;5019239;28;45249;-76
2021/11/17 12:16:25;;;;;;;;;22.75;21.25;;;;;14.10;100.00;102058.63;5018973;28;45316;-77
2021/11/17 12:18:58;;;;;;;;;20.00;19.00;;;;;14.14;100.00;102068.38;5019634;28;45353;-76
2021/11/17 12:21:31;;;;;;;;;18.50;15.25;;;;;14.12;100.00;102072.63;5018967;28;45352;-75
2021/11/17 12:24:08;;;;;;;;;20.25;17.00;;;;;14.11;100.00;102076.03;5019073;28;45428;-75
2021/11/17 12:26:38;;;;;;;;;12.25;11.25;;;;;14.09;100.00;102073.38;5019382;28;45269;-76
2021/11/17 12:29:20;;;;;;;;;17.00;16.00;;;;;14.11;100.00;102088.19;5019453;28;45337;-75
2021/11/17 12:32:08;;;;;;;;;12.50;12.50;;;;;14.15;100.00;102082.28;5019117;28;45982;-77
2021/11/17 12:34:56;;;;;;;;;12.75;11.25;;;;;14.21;100.00;102082.63;5020281;28;45851;-75
2021/11/17 12:37:46;;;;;;;;;15.00;14.75;;;;;14.28;100.00;102082.09;5019266;28;45317;-75
2021/11/17 12:40:33;;;;;;;;;10.50;10.50;;;;;14.33;100.00;102082.31;5019061;28;45262;-76
2021/11/17 12:43:02;;;;;;;;;11.75;7.25;;;;;14.33;100.00;102072.81;5018653;28;45286;-74
2021/11/17 12:45:39;;;;;;;;;8.25;7.25;;;;;14.31;100.00;102086.56;4999786;28;45886;-76
2021/11/17 12:48:25;;;;;;;;;4.50;3.00;;;;;14.21;100.00;102078.28;5017463;28;45485;-78
2021/11/17 12:51:14;;;;;;;;;7.25;5.75;;;;;14.19;100.00;102082.56;5017412;28;45381;-78
2021/11/17 12:53:52;;;;;;;;;12.50;11.75;;;;;14.07;100.00;102068.91;5033494;28;46623;-74
2021/11/17 12:56:45;;;;;;;;;8.00;6.50;;;;;14.13;100.00;102078.75;5028459;28;45686;-75
2021/11/17 12:59:19;;;;;;;;;6.75;5.50;;;;;14.09;100.00;102075.09;5018009;28;45443;-76
2021/11/17 13:02:03;;;;;;;;;6.00;6.00;;;;;14.07;100.00;102077.59;5019044;28;45446;-77
2021/11/17 13:04:37;;;;;;;;;5.25;5.25;;;;;14.09;100.00;102080.31;5018859;28;45323;-76
2021/11/17 13:07:10;;;;;;;;;6.75;6.75;;;;;14.03;100.00;102073.06;5020467;28;45512;-77
2021/11/17 13:09:43;;;;;;;;;7.25;7.00;;;;;14.04;100.00;102073.94;5018956;28;45277;-77
2021/11/17 13:12:16;;;;;;;;;7.00;6.25;;;;;14.04;100.00;102073.94;5018689;28;45586;-77
2021/11/17 13:14:47;;;;;;;;;9.50;6.75;;;;;14.05;100.00;102074.00;5019450;28;45492;-76
2021/11/17 13:17:23;;;;;;;;;4.00;4.00;;;;;14.07;100.00;102076.72;5018521;28;45789;-76
2021/11/17 13:19:53;;;;;;;;;7.00;6.00;;;;;14.08;100.00;102076.78;5019774;28;45348;-79
2021/11/17 13:22:39;;;;;;;;;6.75;6.00;;;;;14.09;100.00;102078.56;5016601;28;45380;-75
2021/11/17 13:25:27;;;;;;;;;6.00;5.00;;;;;14.04;100.00;102077.44;5018151;28;45405;-77
2021/11/17 13:28:03;;;;;;;;;6.25;6.25;;;;;14.09;100.00;102082.91;5018081;28;45332;-77
2021/11/17 13:30:49;;;;;;;;;7.75;7.75;;;;;14.14;100.00;102085.75;5016994;28;45366;-76
2021/11/17 13:33:22;;;;;;;;;7.00;7.00;;;;;14.16;100.00;102086.69;5018325;28;45288;-77
2021/11/17 13:36:02;;;;;;;;;9.50;7.75;;;;;14.16;100.00;102092.81;5017862;28;46247;-76
2021/11/17 13:38:28;;;;;;;;;7.75;7.50;;;;;14.09;100.00;102082.91;5014325;28;45419;-76
2021/11/17 13:40:58;;;;;;;;;6.00;6.00;;;;;14.18;100.00;102099.00;5015418;28;45507;-75
2021/11/17 13:43:25;;;;;;;;;7.50;7.00;;;;;14.15;100.00;102098.81;5001831;28;45395;-76
2021/11/17 13:45:55;;;;;;;;;9.00;8.00;;;;;14.13;100.00;102089.16;5001738;28;46267;-75
2021/11/17 13:48:26;;;;;;;;;6.75;6.25;;;;;14.24;100.00;102096.69;5017957;28;45234;-75
2021/11/17 13:50:52;;;;;;;;;11.00;8.75;;;;;14.32;100.00;102098.78;5017802;28;45479;-77
2021/11/17 13:53:20;;;;;;;;;13.75;11.00;;;;;14.31;100.00;102092.69;5017655;28;45349;-75
2021/11/17 13:55:52;;;;;;;;;11.25;8.00;;;;;14.41;100.00;102099.25;5017514;28;46237;-76
2021/11/17 13:58:17;;;;;;;;;11.00;10.00;;;;;14.47;100.00;102096.06;5017700;28;45917;-75
2021/11/17 14:00:43;;;;;;;;;9.00;9.00;;;;;14.42;100.00;102080.16;5017363;28;45475;-75
2021/11/17 14:03:09;;;;;;;;;7.50;7.50;;;;;14.53;100.00;102098.97;5018500;28;45661;-75
2021/11/17 14:05:40;;;;;;;;;8.25;6.00;;;;;14.45;100.00;102080.34;5018358;28;45228;-75
2021/11/17 14:08:07;;;;;;;;;6.25;6.25;;;;;14.53;100.00;102099.84;5017646;28;45779;-76
2021/11/17 14:10:33;;;;;;;;;8.00;7.50;;;;;14.58;100.00;102102.66;5017293;28;45506;-79
2021/11/17 14:13:00;;;;;;;;;5.50;5.50;;;;;14.60;100.00;102106.25;5017720;28;45464;-75
2021/11/17 14:15:27;;;;;;;;;12.50;7.00;;;;;14.54;100.00;102100.75;5017287;28;46622;-76
2021/11/17 14:17:53;;;;;;;;;7.75;7.00;;;;;14.61;100.00;102109.75;4999505;28;45858;-78